createdAt,value
2018-10-09T00:00:12.621Z,65.34
2018-10-09T00:02:41.215Z,64.46
2018-10-09T00:05:09.805Z,65.39
2018-10-09T00:07:38.402Z,65.94
2018-10-09T00:10:07.176Z,67.66
2018-10-09T00:12:36.127Z,68.13
2018-10-09T00:15:04.725Z,66.14
2018-10-09T00:17:33.297Z,66.32
2018-10-09T00:20:01.949Z,64.35
2018-10-09T00:22:31.670Z,63.26
2018-10-09T00:25:00.759Z,64.36
2018-10-09T00:27:29.706Z,65.66
2018-10-09T00:29:58.335Z,66.47
2018-10-09T00:32:27.051Z,66.13
2018-10-09T00:34:55.721Z,65.33
2018-10-09T00:37:24.751Z,65.12
2018-10-09T00:39:54.115Z,64.87
2018-10-09T00:42:22.713Z,64.93
2018-10-09T00:44:51.376Z,66.08
2018-10-09T00:47:20.089Z,67.94
2018-10-09T00:49:48.708Z,65.05
2018-10-09T00:52:17.535Z,64.48
2018-10-09T00:54:46.122Z,63.46
2018-10-09T00:57:15.357Z,64.32
2018-10-09T00:59:44.070Z,65.51
2018-10-09T01:02:12.772Z,66.28
2018-10-09T01:04:41.357Z,66.11
2018-10-09T01:07:10.895Z,65.78
2018-10-09T01:09:39.686Z,65.42
2018-10-09T01:12:09.592Z,65.50
2018-10-09T01:14:39.002Z,64.47
2018-10-09T01:17:08.017Z,64.55
2018-10-09T01:19:37.363Z,64.51
2018-10-09T01:22:06.272Z,69.80
2018-10-09T01:24:34.805Z,64.68
2018-10-09T01:27:03.386Z,64.23
2018-10-09T01:29:32.031Z,65.01
2018-10-09T01:32:01.150Z,65.31
2018-10-09T01:34:29.882Z,66.47
2018-10-09T01:36:58.523Z,66.93
2018-10-09T01:39:27.486Z,67.54
2018-10-09T01:41:56.065Z,67.29
2018-10-09T01:44:24.585Z,66.12
2018-10-09T01:46:53.260Z,65.26
2018-10-09T01:49:21.836Z,64.91
2018-10-09T01:51:51.224Z,64.64
2018-10-09T01:54:19.915Z,66.18
2018-10-09T01:56:49.372Z,67.05
2018-10-09T01:59:18.244Z,66.33
2018-10-09T02:01:46.829Z,64.54
2018-10-09T02:04:16.160Z,65.34
2018-10-09T02:06:44.740Z,64.61
2018-10-09T02:09:13.371Z,64.12
2018-10-09T02:11:41.986Z,65.74
2018-10-09T02:14:10.648Z,66.60
2018-10-09T02:16:39.651Z,66.47
2018-10-09T02:19:08.841Z,66.24
2018-10-09T02:21:37.436Z,66.87
2018-10-09T02:24:06.760Z,65.95
2018-10-09T02:26:35.835Z,66.72
2018-10-09T02:29:04.401Z,66.69
2018-10-09T02:31:33.064Z,66.16
2018-10-09T02:34:01.620Z,66.63
2018-10-09T02:36:30.806Z,66.28
2018-10-09T02:38:59.611Z,66.33
2018-10-09T02:41:28.291Z,65.68
2018-10-09T02:43:56.909Z,65.85
2018-10-09T02:46:26.064Z,66.11
2018-10-09T02:48:54.707Z,65.38
2018-10-09T02:51:23.250Z,65.26
2018-10-09T02:53:51.877Z,66.10
2018-10-09T02:56:20.495Z,65.52
2018-10-09T02:58:49.026Z,65.37
2018-10-09T03:01:17.625Z,65.19
2018-10-09T03:03:46.275Z,65.07
2018-10-09T03:06:14.836Z,65.70
2018-10-09T03:08:43.573Z,67.90
2018-10-09T03:11:12.285Z,65.07
2018-10-09T03:13:41.099Z,65.22
2018-10-09T03:16:10.670Z,64.36
2018-10-09T03:18:39.311Z,64.07
2018-10-09T03:21:08.712Z,65.37
2018-10-09T03:23:37.534Z,66.98
2018-10-09T03:26:06.104Z,66.99
2018-10-09T03:28:35.944Z,66.77
2018-10-09T03:31:04.634Z,66.23
2018-10-09T03:33:33.289Z,65.37
2018-10-09T03:36:01.861Z,65.86
2018-10-09T03:38:30.502Z,65.34
2018-10-09T03:40:59.657Z,66.39
2018-10-09T03:43:28.379Z,68.57
2018-10-09T03:45:56.892Z,68.21
2018-10-09T03:48:25.587Z,64.58
2018-10-09T03:50:54.139Z,65.00
2018-10-09T03:53:22.789Z,65.82
2018-10-09T03:55:51.345Z,65.93
2018-10-09T03:58:19.934Z,67.69
2018-10-09T04:00:49.540Z,67.84
2018-10-09T04:03:18.157Z,67.48
2018-10-09T04:05:46.754Z,66.63
2018-10-09T04:08:15.518Z,66.41
2018-10-09T04:10:44.758Z,66.13
2018-10-09T04:13:13.321Z,65.58
2018-10-09T04:15:41.919Z,64.73
2018-10-09T04:18:11.129Z,66.11
2018-10-09T04:20:39.776Z,69.22
2018-10-09T04:23:08.405Z,65.72
2018-10-09T04:25:37.724Z,64.66
2018-10-09T04:28:06.500Z,64.78
2018-10-09T04:30:35.060Z,65.33
2018-10-09T04:33:03.706Z,66.01
2018-10-09T04:35:32.671Z,66.78
2018-10-09T04:38:01.274Z,66.59
2018-10-09T04:40:30.629Z,66.30
2018-10-09T04:42:59.256Z,67.10
2018-10-09T04:45:29.265Z,66.22
2018-10-09T04:47:59.515Z,65.59
2018-10-09T04:50:28.170Z,65.59
2018-10-09T04:52:56.745Z,65.74
2018-10-09T04:55:25.323Z,76.34
2018-10-09T04:57:53.951Z,67.27
2018-10-09T05:00:22.530Z,65.12
2018-10-09T05:02:51.269Z,66.50
2018-10-09T05:05:20.135Z,65.59
2018-10-09T05:07:48.790Z,66.19
2018-10-09T05:10:17.476Z,67.77
2018-10-09T05:12:46.050Z,68.00
2018-10-09T05:15:15.274Z,67.25
2018-10-09T05:17:43.900Z,66.21
2018-10-09T05:20:12.556Z,65.72
2018-10-09T05:22:41.574Z,64.84
2018-10-09T05:25:10.285Z,65.63
2018-10-09T05:27:39.044Z,65.24
2018-10-09T05:30:07.932Z,66.87
2018-10-09T05:32:36.521Z,67.93
2018-10-09T05:35:05.966Z,65.23
2018-10-09T05:37:34.620Z,66.57
2018-10-09T05:40:03.517Z,65.28
2018-10-09T05:42:32.130Z,65.64
2018-10-09T05:45:00.730Z,68.02
2018-10-09T05:47:29.534Z,68.24
2018-10-09T05:49:58.309Z,67.72
2018-10-09T05:52:27.092Z,67.47
2018-10-09T05:54:55.919Z,67.41
2018-10-09T05:57:24.535Z,66.84
2018-10-09T05:59:53.658Z,66.66
2018-10-09T06:02:22.387Z,67.10
2018-10-09T06:04:51.039Z,68.19
2018-10-09T06:07:20.633Z,69.51
2018-10-09T06:09:49.656Z,66.68
2018-10-09T06:12:18.209Z,66.38
2018-10-09T06:14:46.939Z,67.23
2018-10-09T06:17:15.487Z,66.33
2018-10-09T06:19:44.060Z,66.57
2018-10-09T06:22:12.741Z,67.46
2018-10-09T06:24:41.804Z,67.25
2018-10-09T06:27:10.314Z,66.60
2018-10-09T06:29:39.021Z,66.09
2018-10-09T06:32:07.722Z,66.17
2018-10-09T06:34:36.331Z,66.39
2018-10-09T06:37:04.967Z,65.73
2018-10-09T06:39:33.612Z,66.90
2018-10-09T06:42:02.274Z,69.30
2018-10-09T06:44:30.918Z,67.48
2018-10-09T06:47:00.057Z,65.17
2018-10-09T06:49:28.744Z,64.83
2018-10-09T06:51:57.462Z,65.72
2018-10-09T06:54:26.231Z,66.76
2018-10-09T06:56:54.815Z,67.09
2018-10-09T06:59:23.450Z,68.12
2018-10-09T07:01:52.224Z,68.17
2018-10-09T07:04:21.285Z,67.41
2018-10-09T07:06:50.620Z,66.24
2018-10-09T07:09:19.121Z,65.61
2018-10-09T07:11:47.684Z,64.67
2018-10-09T07:14:16.345Z,65.12
2018-10-09T07:16:45.001Z,67.54
2018-10-09T07:19:13.582Z,67.61
2018-10-09T07:21:42.867Z,65.55
2018-10-09T07:24:11.646Z,65.05
2018-10-09T07:26:40.255Z,65.32
2018-10-09T07:29:08.812Z,66.48
2018-10-09T07:31:37.471Z,68.34
2018-10-09T07:34:06.045Z,66.54
2018-10-09T07:36:35.767Z,67.16
2018-10-09T07:39:06.156Z,67.41
2018-10-09T07:41:35.385Z,67.45
2018-10-09T07:44:04.449Z,66.72
2018-10-09T07:46:33.061Z,65.80
2018-10-09T07:49:01.799Z,65.91
2018-10-09T07:51:30.395Z,65.17
2018-10-09T07:53:59.070Z,66.00
2018-10-09T07:56:28.445Z,65.06
2018-10-09T07:58:56.981Z,65.52
2018-10-09T08:01:25.846Z,64.96
2018-10-09T08:03:55.276Z,64.01
2018-10-09T08:06:23.883Z,63.49
2018-10-09T08:08:52.607Z,63.76
2018-10-09T08:11:22.195Z,64.38
2018-10-09T08:13:51.130Z,64.17
2018-10-09T08:16:21.018Z,63.46
2018-10-09T08:18:49.801Z,63.03
2018-10-09T08:21:18.604Z,62.39
2018-10-09T08:23:47.294Z,61.93
2018-10-09T08:26:16.116Z,61.15
2018-10-09T08:28:44.791Z,61.91
2018-10-09T08:31:13.393Z,60.29
2018-10-09T08:33:41.987Z,59.29
2018-10-09T08:36:10.645Z,59.46
2018-10-09T08:38:39.410Z,57.44
2018-10-09T08:41:08.023Z,58.98
2018-10-09T08:43:36.780Z,59.72
2018-10-09T08:46:05.443Z,57.20
2018-10-09T08:48:34.001Z,55.82
2018-10-09T08:51:02.618Z,56.71
2018-10-09T08:53:31.255Z,56.83
2018-10-09T08:55:59.859Z,55.90
2018-10-09T08:58:28.551Z,55.44
2018-10-09T09:00:57.300Z,56.47
2018-10-09T09:03:26.064Z,56.39
2018-10-09T09:05:54.706Z,57.08
2018-10-09T09:08:23.355Z,58.15
2018-10-09T09:10:53.265Z,58.51
2018-10-09T09:13:22.739Z,58.99
2018-10-09T09:15:51.569Z,59.09
2018-10-09T09:18:20.292Z,58.51
2018-10-09T09:20:49.197Z,59.28
2018-10-09T09:23:18.571Z,58.35
2018-10-09T09:25:47.785Z,58.29
2018-10-09T09:28:16.517Z,58.19
2018-10-09T09:30:45.189Z,58.79
2018-10-09T09:33:14.702Z,58.74
2018-10-09T09:35:43.388Z,57.11
2018-10-09T09:38:12.149Z,56.23
2018-10-09T09:40:40.883Z,55.81
2018-10-09T09:43:09.429Z,55.14
2018-10-09T09:45:38.078Z,53.69
2018-10-09T09:48:07.389Z,54.01
2018-10-09T09:50:36.778Z,54.19
2018-10-09T09:53:05.534Z,53.28
2018-10-09T09:55:34.261Z,53.15
2018-10-09T09:58:04.133Z,53.99
2018-10-09T10:00:37.768Z,54.89
2018-10-09T10:03:07.135Z,56.10
2018-10-09T10:05:35.774Z,54.75
2018-10-09T10:08:05.091Z,53.91
2018-10-09T10:10:33.784Z,55.98
2018-10-09T10:13:02.344Z,56.57
2018-10-09T10:15:30.965Z,56.56
2018-10-09T10:18:00.307Z,57.57
2018-10-09T10:20:28.941Z,56.34
2018-10-09T10:22:57.644Z,55.13
2018-10-09T10:25:26.299Z,55.17
2018-10-09T10:27:55.231Z,54.39
2018-10-09T10:30:24.010Z,54.65
2018-10-09T10:32:53.595Z,54.41
2018-10-09T10:35:23.163Z,53.47
2018-10-09T10:37:51.719Z,53.39
2018-10-09T10:40:20.898Z,55.07
2018-10-09T10:42:49.480Z,52.97
2018-10-09T10:45:18.278Z,53.43
2018-10-09T10:47:47.540Z,54.42
2018-10-09T10:50:16.129Z,54.12
2018-10-09T10:52:44.815Z,53.64
2018-10-09T10:55:13.484Z,53.44
2018-10-09T10:57:42.060Z,52.58
2018-10-09T11:00:10.861Z,51.32
2018-10-09T11:02:40.939Z,51.18
2018-10-09T11:05:10.488Z,51.91
2018-10-09T11:07:39.820Z,52.69
2018-10-09T11:10:09.133Z,50.50
2018-10-09T11:12:37.683Z,50.50
2018-10-09T11:15:08.034Z,50.82
2018-10-09T11:17:36.558Z,50.64
2018-10-09T11:20:05.300Z,50.05
2018-10-09T11:22:34.447Z,49.94
2018-10-09T11:25:03.079Z,48.98
2018-10-09T11:27:31.784Z,50.92
2018-10-09T11:30:00.825Z,49.71
2018-10-09T11:32:29.411Z,48.47
2018-10-09T11:34:58.099Z,48.45
2018-10-09T11:37:27.140Z,48.68
2018-10-09T11:39:56.417Z,49.53
2018-10-09T11:42:24.977Z,49.28
2018-10-09T11:44:54.599Z,47.48
2018-10-09T11:47:23.181Z,48.01
2018-10-09T11:49:51.867Z,46.56
2018-10-09T11:52:20.453Z,46.97
2018-10-09T11:54:49.535Z,47.49
2018-10-09T11:57:18.946Z,47.16
2018-10-09T11:59:47.636Z,46.07
2018-10-09T12:02:16.325Z,46.19
2018-10-09T12:04:44.939Z,46.57
2018-10-09T12:07:13.544Z,45.82
2018-10-09T12:09:43.138Z,45.81
2018-10-09T12:12:11.873Z,45.40
2018-10-09T12:14:40.478Z,45.12
2018-10-09T12:17:09.168Z,45.61
2018-10-09T12:19:38.649Z,46.89
2018-10-09T12:22:07.408Z,47.02
2018-10-09T12:24:36.029Z,45.39
2018-10-09T12:27:04.867Z,44.32
2018-10-09T12:29:34.121Z,45.32
2018-10-09T12:32:03.328Z,45.28
2018-10-09T12:34:31.920Z,45.87
2018-10-09T12:37:00.575Z,45.52
2018-10-09T12:39:29.187Z,45.95
2018-10-09T12:41:58.319Z,45.34
2018-10-09T12:44:28.670Z,45.43
2018-10-09T12:46:57.353Z,46.15
2018-10-09T12:49:26.013Z,45.89
2018-10-09T12:51:55.129Z,45.89
2018-10-09T12:54:24.465Z,45.56
2018-10-09T12:56:53.237Z,45.74
2018-10-09T12:59:21.773Z,45.44
2018-10-09T13:01:50.479Z,45.18
2018-10-09T13:04:19.010Z,46.26
2018-10-09T13:06:47.756Z,46.13
2018-10-09T13:09:17.053Z,45.40
2018-10-09T13:11:45.769Z,46.20
2018-10-09T13:14:14.438Z,45.07
2018-10-09T13:16:43.090Z,45.90
2018-10-09T13:19:11.882Z,45.68
2018-10-09T13:21:41.467Z,47.02
2018-10-09T13:24:10.233Z,46.55
2018-10-09T13:26:39.058Z,46.26
2018-10-09T13:29:07.737Z,45.05
2018-10-09T13:31:36.375Z,43.92
2018-10-09T13:34:05.158Z,46.30
2018-10-09T13:36:34.920Z,44.96
2018-10-09T13:39:03.945Z,45.67
2018-10-09T13:41:32.929Z,44.75
2018-10-09T13:44:01.541Z,44.82
2018-10-09T13:46:30.098Z,45.25
2018-10-09T13:48:58.924Z,44.98
2018-10-09T13:51:28.343Z,44.34
2018-10-09T13:53:57.039Z,43.59
2018-10-09T13:56:25.818Z,44.99
2018-10-09T13:58:54.747Z,46.92
2018-10-09T14:01:23.672Z,45.69
2018-10-09T14:03:52.407Z,46.14
2018-10-09T14:06:21.204Z,46.91
2018-10-09T14:08:50.430Z,46.25
2018-10-09T14:11:19.428Z,45.55
2018-10-09T14:13:48.108Z,46.54
2018-10-09T14:16:16.826Z,46.24
2018-10-09T14:18:45.567Z,44.80
2018-10-09T14:21:14.154Z,45.79
2018-10-09T14:23:42.953Z,46.50
2018-10-09T14:26:12.107Z,44.84
2018-10-09T14:28:40.768Z,46.42
2018-10-09T14:31:09.728Z,46.47
2018-10-09T14:33:38.362Z,47.12
2018-10-09T14:36:07.599Z,46.23
2018-10-09T14:38:36.348Z,47.87
2018-10-09T14:41:05.231Z,46.70
2018-10-09T14:43:33.940Z,46.54
2018-10-09T14:46:02.491Z,46.26
2018-10-09T14:48:31.678Z,47.71
2018-10-09T14:51:00.339Z,46.62
2018-10-09T14:53:29.030Z,46.72
2018-10-09T14:55:57.737Z,48.04
2018-10-09T14:58:27.073Z,47.40
2018-10-09T15:00:56.528Z,48.03
2018-10-09T15:03:25.229Z,47.04
2018-10-09T15:05:54.015Z,46.77
2018-10-09T15:08:22.689Z,48.29
2018-10-09T15:10:51.472Z,50.25
2018-10-09T15:13:20.617Z,49.79
2018-10-09T15:15:49.263Z,49.40
2018-10-09T15:18:17.988Z,51.56
2018-10-09T15:20:46.678Z,51.18
2018-10-09T15:23:15.312Z,50.86
2018-10-09T15:25:44.773Z,49.99
2018-10-09T15:28:13.394Z,50.83
2018-10-09T15:30:42.044Z,50.42
2018-10-09T15:33:10.647Z,51.86
2018-10-09T15:35:40.153Z,50.68
2018-10-09T15:38:08.876Z,50.49
2018-10-09T15:40:37.621Z,52.93
2018-10-09T15:43:06.207Z,52.72
2018-10-09T15:45:35.071Z,52.14
2018-10-09T15:48:04.003Z,52.27
2018-10-09T15:50:32.664Z,53.57
2018-10-09T15:53:01.355Z,53.42
2018-10-09T15:55:29.939Z,55.40
2018-10-09T15:57:58.697Z,54.66
2018-10-09T16:00:27.397Z,55.63
2018-10-09T16:02:56.034Z,55.81
2018-10-09T16:05:24.588Z,56.42
2018-10-09T16:07:53.379Z,56.63
2018-10-09T16:10:22.574Z,57.24
2018-10-09T16:12:51.196Z,57.95
2018-10-09T16:15:19.845Z,57.83
2018-10-09T16:17:48.429Z,58.35
2018-10-09T16:20:17.231Z,58.18
2018-10-09T16:22:47.124Z,58.37
2018-10-09T16:25:15.770Z,58.82
2018-10-09T16:27:44.920Z,59.73
2018-10-09T16:30:14.382Z,59.53
2018-10-09T16:32:43.318Z,60.27
2018-10-09T16:35:11.877Z,60.66
2018-10-09T16:37:40.631Z,60.95
2018-10-09T16:40:09.250Z,59.83
2018-10-09T16:42:37.923Z,61.14
2018-10-09T16:45:07.441Z,62.25
2018-10-09T16:47:36.695Z,61.16
2018-10-09T16:50:05.437Z,60.81
2018-10-09T16:52:34.238Z,61.21
2018-10-09T16:55:03.023Z,62.40
2018-10-09T16:57:31.603Z,62.41
2018-10-09T17:00:00.197Z,62.71
2018-10-09T17:02:28.872Z,63.11
2018-10-09T17:04:58.009Z,63.56
2018-10-09T17:07:26.768Z,63.77
2018-10-09T17:09:55.423Z,63.03
2018-10-09T17:12:25.153Z,63.50
2018-10-09T17:14:54.107Z,64.08
2018-10-09T17:17:22.951Z,64.37
2018-10-09T17:19:52.402Z,63.70
2018-10-09T17:22:21.223Z,64.46
2018-10-09T17:24:50.485Z,64.25
2018-10-09T17:27:19.730Z,64.08
2018-10-09T17:29:48.682Z,62.87
2018-10-09T17:32:17.977Z,64.67
2018-10-09T17:34:48.337Z,65.87
2018-10-09T17:37:17.028Z,65.69
2018-10-09T17:39:45.778Z,65.15
2018-10-09T17:42:15.400Z,64.64
2018-10-09T17:44:44.107Z,64.64
2018-10-09T17:47:12.887Z,64.66
2018-10-09T17:49:41.666Z,64.75
2018-10-09T17:52:10.985Z,64.88
2018-10-09T17:54:39.828Z,65.10
2018-10-09T17:57:08.784Z,65.68
2018-10-09T17:59:37.442Z,65.67
2018-10-09T18:02:07.052Z,65.60
2018-10-09T18:04:36.057Z,65.35
2018-10-09T18:07:04.733Z,65.74
2018-10-09T18:09:34.473Z,66.45
2018-10-09T18:12:03.833Z,65.69
2018-10-09T18:14:32.803Z,65.79
2018-10-09T18:17:01.674Z,66.48
2018-10-09T18:19:30.483Z,66.74
2018-10-09T18:22:00.119Z,66.70
2018-10-09T18:24:29.575Z,67.71
2018-10-09T18:26:59.074Z,67.58
2018-10-09T18:29:29.325Z,67.16
2018-10-09T18:31:59.095Z,67.23
2018-10-09T18:34:27.824Z,66.60
2018-10-09T18:36:56.524Z,67.06
2018-10-09T18:39:25.320Z,66.28
2018-10-09T18:41:54.255Z,67.36
2018-10-09T18:44:22.789Z,66.62
2018-10-09T18:46:51.535Z,67.30
2018-10-09T18:49:20.168Z,67.23
2018-10-09T18:51:48.889Z,68.13
2018-10-09T18:54:17.562Z,67.82
2018-10-09T18:56:46.344Z,67.83
2018-10-09T18:59:15.998Z,68.22
2018-10-09T19:01:44.682Z,69.01
2018-10-09T19:04:13.439Z,69.39
2018-10-09T19:06:42.083Z,69.12
2018-10-09T19:09:12.337Z,68.84
2018-10-09T19:11:41.329Z,68.92
2018-10-09T19:14:11.114Z,69.26
2018-10-09T19:16:40.747Z,69.09
2018-10-09T19:19:09.580Z,68.35
2018-10-09T19:21:38.237Z,68.86
2018-10-09T19:24:07.247Z,68.92
2018-10-09T19:26:35.937Z,68.76
2018-10-09T19:29:04.722Z,69.06
2018-10-09T19:31:34.496Z,68.76
2018-10-09T19:34:03.241Z,68.76
2018-10-09T19:36:32.814Z,69.17
2018-10-09T19:39:03.824Z,69.20
2018-10-09T19:41:32.623Z,68.98
2018-10-09T19:44:01.287Z,68.57
2018-10-09T19:46:30.879Z,69.25
2018-10-09T19:49:00.799Z,69.91
2018-10-09T19:51:30.571Z,70.01
2018-10-09T19:54:00.330Z,70.18
2018-10-09T19:56:29.284Z,70.27
2018-10-09T19:58:58.100Z,70.48
2018-10-09T20:01:27.669Z,70.70
2018-10-09T20:03:56.399Z,70.10
2018-10-09T20:06:25.778Z,70.47
2018-10-09T20:08:54.923Z,73.08
2018-10-09T20:11:23.751Z,72.21
2018-10-09T20:13:52.394Z,68.73
2018-10-09T20:16:21.187Z,68.66
2018-10-09T20:18:49.844Z,68.29
2018-10-09T20:21:18.557Z,68.83
2018-10-09T20:23:47.338Z,69.73
2018-10-09T20:26:16.154Z,69.20
2018-10-09T20:28:44.876Z,69.39
2018-10-09T20:31:14.921Z,69.45
2018-10-09T20:33:43.627Z,69.36
2018-10-09T20:36:12.372Z,68.96
2018-10-09T20:38:41.157Z,68.67
2018-10-09T20:41:09.882Z,68.94
2018-10-09T20:43:39.352Z,68.64
2018-10-09T20:46:08.217Z,69.46
2018-10-09T20:48:37.764Z,69.47
2018-10-09T20:51:06.862Z,69.58
2018-10-09T20:53:36.144Z,69.90
2018-10-09T20:56:05.399Z,69.19
2018-10-09T20:58:34.524Z,68.76
2018-10-09T21:01:03.307Z,69.02
2018-10-09T21:03:32.014Z,69.58
2018-10-09T21:06:01.212Z,70.23
2018-10-09T21:08:29.878Z,70.06
2018-10-09T21:10:58.411Z,69.83
2018-10-09T21:13:27.086Z,69.36
2018-10-09T21:15:55.687Z,69.59
2018-10-09T21:18:25.029Z,69.80
2018-10-09T21:20:53.664Z,69.50
2018-10-09T21:23:22.277Z,70.05
2018-10-09T21:25:50.822Z,69.87
2018-10-09T21:28:19.584Z,70.87
2018-10-09T21:30:48.278Z,69.80
2018-10-09T21:33:16.988Z,70.61
2018-10-09T21:35:45.613Z,69.96
2018-10-09T21:38:14.889Z,69.66
2018-10-09T21:40:44.018Z,69.57
2018-10-09T21:43:12.552Z,70.00
2018-10-09T21:45:42.293Z,70.60
2018-10-09T21:48:10.997Z,70.79
2018-10-09T21:50:39.576Z,70.26
2018-10-09T21:53:08.188Z,69.86
2018-10-09T21:55:36.868Z,71.51
2018-10-09T21:58:05.552Z,70.21
2018-10-09T22:00:39.556Z,69.20
2018-10-09T22:03:09.035Z,69.82
2018-10-09T22:05:37.673Z,69.40
2018-10-09T22:08:06.378Z,69.34
2018-10-09T22:10:35.049Z,69.67
2018-10-09T22:13:04.331Z,69.23
2018-10-09T22:15:33.098Z,69.87
2018-10-09T22:18:02.013Z,69.74
2018-10-09T22:20:31.619Z,69.79
2018-10-09T22:23:00.206Z,70.26
2018-10-09T22:25:28.872Z,70.70
2018-10-09T22:27:58.141Z,70.34
2018-10-09T22:30:26.818Z,70.06
2018-10-09T22:32:55.606Z,70.53
2018-10-09T22:35:24.251Z,71.54
2018-10-09T22:37:53.249Z,70.61
2018-10-09T22:40:21.896Z,70.73
2018-10-09T22:42:50.830Z,73.78
2018-10-09T22:45:19.799Z,70.58
2018-10-09T22:47:49.341Z,68.19
2018-10-09T22:50:18.501Z,68.73
2018-10-09T22:52:47.086Z,69.22
2018-10-09T22:55:15.796Z,68.63
2018-10-09T22:57:44.341Z,69.19
2018-10-09T23:00:13.027Z,70.14
2018-10-09T23:02:41.771Z,70.10
2018-10-09T23:05:10.445Z,69.99
2018-10-09T23:07:39.311Z,69.90
2018-10-09T23:10:08.131Z,69.80
2018-10-09T23:12:36.961Z,70.64
2018-10-09T23:15:06.232Z,71.18
2018-10-09T23:17:34.932Z,71.28
2018-10-09T23:20:03.844Z,71.56
2018-10-09T23:22:32.894Z,71.34
2018-10-09T23:25:01.495Z,73.69
2018-10-09T23:27:30.300Z,69.62
2018-10-09T23:29:59.116Z,69.20
2018-10-09T23:32:27.781Z,69.07
2018-10-09T23:34:56.693Z,69.18
2018-10-09T23:37:25.433Z,69.75
2018-10-09T23:39:54.731Z,70.28
2018-10-09T23:42:23.530Z,70.03
2018-10-09T23:44:52.085Z,71.24
2018-10-09T23:47:20.712Z,71.56
2018-10-09T23:49:49.380Z,69.84
2018-10-09T23:52:18.048Z,69.98
2018-10-09T23:54:47.601Z,71.15
2018-10-09T23:57:16.674Z,71.46
2018-10-09T23:59:45.213Z,72.99
